sensor_id;sensor_type;location;lat;lon;timestamp;pressure;altitude;pressure_sealevel;temperature;humidity
55538;BME280;41383;51.418;7.286;2022-10-16T00:01:31;99395.81;;;13.61;96.15
55538;BME280;41383;51.418;7.286;2022-10-16T00:03:57;99398.56;;;13.61;96.23
55538;BME280;41383;51.418;7.286;2022-10-16T00:06:24;99393.59;;;13.63;95.98
55538;BME280;41383;51.418;7.286;2022-10-16T00:08:50;99387.09;;;13.59;95.61
55538;BME280;41383;51.418;7.286;2022-10-16T00:11:23;99404.50;;;13.69;95.44
55538;BME280;41383;51.418;7.286;2022-10-16T00:13:50;99404.00;;;13.67;95.01
55538;BME280;41383;51.418;7.286;2022-10-16T00:16:17;99401.91;;;13.58;95.34
55538;BME280;41383;51.418;7.286;2022-10-16T00:18:43;99398.94;;;13.54;95.61
55538;BME280;41383;51.418;7.286;2022-10-16T00:21:09;99394.78;;;13.57;95.12
55538;BME280;41383;51.418;7.286;2022-10-16T00:23:35;99404.56;;;13.63;94.86
55538;BME280;41383;51.418;7.286;2022-10-16T00:26:06;99402.69;;;13.59;94.97
55538;BME280;41383;51.418;7.286;2022-10-16T00:28:31;99401.91;;;13.58;95.07
55538;BME280;41383;51.418;7.286;2022-10-16T00:30:57;99401.00;;;13.63;94.79
55538;BME280;41383;51.418;7.286;2022-10-16T00:33:23;99405.97;;;13.61;94.34
55538;BME280;41383;51.418;7.286;2022-10-16T00:35:48;99407.94;;;13.55;94.72
55538;BME280;41383;51.418;7.286;2022-10-16T00:38:13;99412.03;;;13.58;94.94
55538;BME280;41383;51.418;7.286;2022-10-16T00:40:39;99414.78;;;13.58;94.77
55538;BME280;41383;51.418;7.286;2022-10-16T00:43:34;99415.59;;;13.58;94.68
55538;BME280;41383;51.418;7.286;2022-10-16T00:46:02;99414.00;;;13.52;94.87
55538;BME280;41383;51.418;7.286;2022-10-16T00:48:28;99414.25;;;13.56;94.80
55538;BME280;41383;51.418;7.286;2022-10-16T00:50:54;99415.06;;;13.56;94.96
55538;BME280;41383;51.418;7.286;2022-10-16T00:53:19;99413.44;;;13.55;94.68
55538;BME280;41383;51.418;7.286;2022-10-16T00:55:45;99416.44;;;13.53;94.83
55538;BME280;41383;51.418;7.286;2022-10-16T00:58:11;99414.25;;;13.56;94.53
55538;BME280;41383;51.418;7.286;2022-10-16T01:00:36;99417.00;;;13.56;94.69
55538;BME280;41383;51.418;7.286;2022-10-16T01:03:02;99419.13;;;13.59;94.49
55538;BME280;41383;51.418;7.286;2022-10-16T01:05:38;99416.69;;;13.57;94.83
55538;BME280;41383;51.418;7.286;2022-10-16T01:08:13;99412.25;;;13.61;94.32
55538;BME280;41383;51.418;7.286;2022-10-16T01:13:24;99409.81;;;13.60;94.32
55538;BME280;41383;51.418;7.286;2022-10-16T01:18:44;99415.88;;;13.57;94.49
55538;BME280;41383;51.418;7.286;2022-10-16T01:21:16;99413.66;;;13.59;94.87
55538;BME280;41383;51.418;7.286;2022-10-16T01:26:57;99425.22;;;13.56;94.65
55538;BME280;41383;51.418;7.286;2022-10-16T01:29:34;99419.94;;;13.59;94.33
55538;BME280;41383;51.418;7.286;2022-10-16T01:32:10;99423.97;;;13.67;94.23
55538;BME280;41383;51.418;7.286;2022-10-16T01:34:53;99424.56;;;13.64;93.76
55538;BME280;41383;51.418;7.286;2022-10-16T01:37:54;99418.13;;;13.54;94.38
55538;BME280;41383;51.418;7.286;2022-10-16T01:40:25;99409.06;;;13.54;94.30
55538;BME280;41383;51.418;7.286;2022-10-16T01:43:11;99410.97;;;13.53;94.26
55538;BME280;41383;51.418;7.286;2022-10-16T01:45:38;99416.16;;;13.55;94.40
55538;BME280;41383;51.418;7.286;2022-10-16T01:48:05;99413.25;;;13.46;94.92
55538;BME280;41383;51.418;7.286;2022-10-16T01:50:35;99425.06;;;13.41;95.19
55538;BME280;41383;51.418;7.286;2022-10-16T01:53:03;99414.69;;;13.38;94.95
55538;BME280;41383;51.418;7.286;2022-10-16T01:55:33;99416.78;;;13.47;94.43
55538;BME280;41383;51.418;7.286;2022-10-16T01:58:03;99415.75;;;13.42;94.29
55538;BME280;41383;51.418;7.286;2022-10-16T02:00:31;99417.69;;;13.42;94.14
55538;BME280;41383;51.418;7.286;2022-10-16T02:02:57;99419.38;;;13.38;94.74
55538;BME280;41383;51.418;7.286;2022-10-16T02:05:30;99423.19;;;13.37;94.72
55538;BME280;41383;51.418;7.286;2022-10-16T02:07:57;99419.94;;;13.35;94.92
55538;BME280;41383;51.418;7.286;2022-10-16T02:10:24;99422.97;;;13.33;94.60
55538;BME280;41383;51.418;7.286;2022-10-16T02:12:56;99428.16;;;13.35;94.40
55538;BME280;41383;51.418;7.286;2022-10-16T02:15:23;99425.78;;;13.28;94.55
55538;BME280;41383;51.418;7.286;2022-10-16T02:17:49;99412.09;;;13.28;94.21
55538;BME280;41383;51.418;7.286;2022-10-16T02:20:14;99416.22;;;13.25;94.38
55538;BME280;41383;51.418;7.286;2022-10-16T02:22:43;99420.06;;;13.24;94.39
55538;BME280;41383;51.418;7.286;2022-10-16T02:25:32;99414.59;;;13.24;94.14
55538;BME280;41383;51.418;7.286;2022-10-16T02:28:19;99423.91;;;13.23;94.09
55538;BME280;41383;51.418;7.286;2022-10-16T02:30:56;99414.59;;;13.24;93.91
55538;BME280;41383;51.418;7.286;2022-10-16T02:33:25;99407.25;;;13.19;94.16
55538;BME280;41383;51.418;7.286;2022-10-16T02:35:52;99413.81;;;13.18;94.06
55538;BME280;41383;51.418;7.286;2022-10-16T02:38:19;99421.00;;;13.14;94.77
55538;BME280;41383;51.418;7.286;2022-10-16T02:40:45;99419.53;;;13.22;94.10
55538;BME280;41383;51.418;7.286;2022-10-16T02:43:11;99425.53;;;13.24;93.62
55538;BME280;41383;51.418;7.286;2022-10-16T02:45:36;99425.53;;;13.24;93.46
55538;BME280;41383;51.418;7.286;2022-10-16T02:48:02;99419.50;;;13.27;93.27
55538;BME280;41383;51.418;7.286;2022-10-16T02:50:27;99419.25;;;13.24;93.72
55538;BME280;41383;51.418;7.286;2022-10-16T02:52:52;99420.41;;;13.17;93.58
55538;BME280;41383;51.418;7.286;2022-10-16T02:55:18;99413.25;;;13.22;93.93
55538;BME280;41383;51.418;7.286;2022-10-16T02:57:43;99421.47;;;13.22;93.82
55538;BME280;41383;51.418;7.286;2022-10-16T03:00:11;99422.28;;;13.22;93.64
55538;BME280;41383;51.418;7.286;2022-10-16T03:02:37;99422.56;;;13.21;93.67
55538;BME280;41383;51.418;7.286;2022-10-16T03:05:02;99411.84;;;13.24;93.44
55538;BME280;41383;51.418;7.286;2022-10-16T03:07:28;99425.91;;;13.17;93.63
55538;BME280;41383;51.418;7.286;2022-10-16T03:09:53;99426.34;;;13.25;93.77
55538;BME280;41383;51.418;7.286;2022-10-16T03:12:19;99431.81;;;13.25;93.31
55538;BME280;41383;51.418;7.286;2022-10-16T03:14:45;99438.94;;;13.26;93.20
55538;BME280;41383;51.418;7.286;2022-10-16T03:17:10;99435.69;;;13.24;92.89
55538;BME280;41383;51.418;7.286;2022-10-16T03:19:35;99443.38;;;13.22;93.09
55538;BME280;41383;51.418;7.286;2022-10-16T03:22:01;99437.59;;;13.23;92.59
55538;BME280;41383;51.418;7.286;2022-10-16T03:24:26;99441.16;;;13.24;93.12
55538;BME280;41383;51.418;7.286;2022-10-16T03:26:51;99448.03;;;13.21;92.80
55538;BME280;41383;51.418;7.286;2022-10-16T03:29:16;99430.75;;;13.26;92.94
55538;BME280;41383;51.418;7.286;2022-10-16T03:31:42;99427.47;;;13.24;92.87
55538;BME280;41383;51.418;7.286;2022-10-16T03:34:07;99420.06;;;13.24;92.73
55538;BME280;41383;51.418;7.286;2022-10-16T03:36:32;99416.00;;;13.22;92.48
55538;BME280;41383;51.418;7.286;2022-10-16T03:38:58;99420.66;;;13.21;91.98
55538;BME280;41383;51.418;7.286;2022-10-16T03:41:23;99420.56;;;13.26;91.96
55538;BME280;41383;51.418;7.286;2022-10-16T03:43:48;99428.00;;;13.26;92.04
55538;BME280;41383;51.418;7.286;2022-10-16T03:46:14;99429.16;;;13.19;91.58
55538;BME280;41383;51.418;7.286;2022-10-16T03:48:39;99432.44;;;13.22;91.96
55538;BME280;41383;51.418;7.286;2022-10-16T03:51:05;99435.19;;;13.16;92.01
55538;BME280;41383;51.418;7.286;2022-10-16T03:53:30;99450.22;;;13.19;92.26
55538;BME280;41383;51.418;7.286;2022-10-16T03:55:56;99442.25;;;13.23;92.02
55538;BME280;41383;51.418;7.286;2022-10-16T03:58:21;99440.34;;;13.23;91.58
55538;BME280;41383;51.418;7.286;2022-10-16T04:00:46;99445.88;;;13.18;91.87
55538;BME280;41383;51.418;7.286;2022-10-16T04:03:15;99442.25;;;13.23;91.42
55538;BME280;41383;51.418;7.286;2022-10-16T04:05:40;99433.59;;;13.15;91.51
55538;BME280;41383;51.418;7.286;2022-10-16T04:08:06;99440.78;;;13.06;91.66
55538;BME280;41383;51.418;7.286;2022-10-16T04:10:31;99441.06;;;13.04;91.88
55538;BME280;41383;51.418;7.286;2022-10-16T04:12:56;99447.66;;;13.03;91.67
55538;BME280;41383;51.418;7.286;2022-10-16T04:15:22;99446.25;;;13.06;91.69
55538;BME280;41383;51.418;7.286;2022-10-16T04:17:48;99446.25;;;13.06;91.78
55538;BME280;41383;51.418;7.286;2022-10-16T04:20:14;99443.00;;;13.04;91.54
55538;BME280;41383;51.418;7.286;2022-10-16T04:22:39;99452.31;;;13.03;91.40
55538;BME280;41383;51.418;7.286;2022-10-16T04:25:05;99462.44;;;13.02;91.80
55538;BME280;41383;51.418;7.286;2022-10-16T04:27:30;99465.47;;;13.01;91.14
55538;BME280;41383;51.418;7.286;2022-10-16T04:29:57;99459.66;;;13.07;91.16
55538;BME280;41383;51.418;7.286;2022-10-16T04:32:22;99460.81;;;13.01;90.91
55538;BME280;41383;51.418;7.286;2022-10-16T04:34:47;99462.78;;;12.95;91.56
55538;BME280;41383;51.418;7.286;2022-10-16T04:37:13;99466.28;;;13.01;91.33
55538;BME280;41383;51.418;7.286;2022-10-16T04:39:38;99470.94;;;13.01;91.05
55538;BME280;41383;51.418;7.286;2022-10-16T04:42:03;99477.50;;;13.00;91.34
55538;BME280;41383;51.418;7.286;2022-10-16T04:44:29;99484.16;;;12.93;91.38
55538;BME280;41383;51.418;7.286;2022-10-16T04:46:54;99481.13;;;12.95;91.21
55538;BME280;41383;51.418;7.286;2022-10-16T04:49:19;99495.03;;;12.99;91.42
55538;BME280;41383;51.418;7.286;2022-10-16T04:51:45;99484.69;;;12.95;91.45
55538;BME280;41383;51.418;7.286;2022-10-16T04:54:10;99482.47;;;12.98;91.15
55538;BME280;41383;51.418;7.286;2022-10-16T04:56:36;99481.97;;;12.90;91.56
55538;BME280;41383;51.418;7.286;2022-10-16T04:59:08;99482.22;;;12.94;91.40
55538;BME280;41383;51.418;7.286;2022-10-16T05:01:34;99482.19;;;12.99;90.96
55538;BME280;41383;51.418;7.286;2022-10-16T05:03:59;99486.31;;;12.96;91.56
55538;BME280;41383;51.418;7.286;2022-10-16T05:06:24;99491.19;;;13.00;91.34
55538;BME280;41383;51.418;7.286;2022-10-16T05:08:49;99502.09;;;13.05;91.58
55538;BME280;41383;51.418;7.286;2022-10-16T05:11:15;99512.50;;;13.03;91.15
55538;BME280;41383;51.418;7.286;2022-10-16T05:13:40;99513.06;;;13.00;91.21
55538;BME280;41383;51.418;7.286;2022-10-16T05:16:05;99509.84;;;12.98;91.53
55538;BME280;41383;51.418;7.286;2022-10-16T05:18:31;99513.91;;;13.00;91.34
55538;BME280;41383;51.418;7.286;2022-10-16T05:20:56;99518.53;;;13.00;91.35
55538;BME280;41383;51.418;7.286;2022-10-16T05:23:22;99521.56;;;12.98;91.83
55538;BME280;41383;51.418;7.286;2022-10-16T05:25:55;99524.84;;;13.00;91.89
55538;BME280;41383;51.418;7.286;2022-10-16T05:28:23;99526.50;;;13.01;91.76
55538;BME280;41383;51.418;7.286;2022-10-16T05:30:48;99525.44;;;12.97;92.07
55538;BME280;41383;51.418;7.286;2022-10-16T05:33:14;99543.22;;;12.94;91.96
55538;BME280;41383;51.418;7.286;2022-10-16T05:35:39;99538.59;;;12.95;92.24
55538;BME280;41383;51.418;7.286;2022-10-16T05:38:04;99535.56;;;12.96;92.09
55538;BME280;41383;51.418;7.286;2022-10-16T05:40:29;99543.47;;;12.98;92.47
55538;BME280;41383;51.418;7.286;2022-10-16T05:42:55;99542.69;;;12.92;92.85
55538;BME280;41383;51.418;7.286;2022-10-16T05:45:21;99544.59;;;12.92;92.83
55538;BME280;41383;51.418;7.286;2022-10-16T05:47:46;99533.63;;;12.97;92.68
55538;BME280;41383;51.418;7.286;2022-10-16T05:50:11;99536.94;;;12.94;92.69
55538;BME280;41383;51.418;7.286;2022-10-16T05:52:37;99537.19;;;12.98;92.64
55538;BME280;41383;51.418;7.286;2022-10-16T05:55:03;99548.41;;;12.96;92.27
55538;BME280;41383;51.418;7.286;2022-10-16T05:57:28;99549.00;;;12.93;92.63
55538;BME280;41383;51.418;7.286;2022-10-16T05:59:53;99555.56;;;12.92;93.00
55538;BME280;41383;51.418;7.286;2022-10-16T06:02:19;99552.03;;;12.91;92.88
55538;BME280;41383;51.418;7.286;2022-10-16T06:04:44;99567.31;;;12.92;92.61
55538;BME280;41383;51.418;7.286;2022-10-16T06:07:09;99580.72;;;12.94;92.98
55538;BME280;41383;51.418;7.286;2022-10-16T06:09:35;99564.59;;;12.92;92.81
55538;BME280;41383;51.418;7.286;2022-10-16T06:12:00;99578.25;;;12.92;93.34
55538;BME280;41383;51.418;7.286;2022-10-16T06:14:25;99577.19;;;12.93;93.26
55538;BME280;41383;51.418;7.286;2022-10-16T06:16:50;99584.28;;;12.94;92.82
55538;BME280;41383;51.418;7.286;2022-10-16T06:19:16;99594.13;;;12.95;92.96
55538;BME280;41383;51.418;7.286;2022-10-16T06:21:42;99597.09;;;12.99;92.92
55538;BME280;41383;51.418;7.286;2022-10-16T06:24:08;99599.84;;;12.99;93.03
55538;BME280;41383;51.418;7.286;2022-10-16T06:26:33;99595.75;;;12.96;93.11
55538;BME280;41383;51.418;7.286;2022-10-16T06:28:59;99602.28;;;13.01;92.89
55538;BME280;41383;51.418;7.286;2022-10-16T06:31:25;99602.81;;;13.03;93.14
55538;BME280;41383;51.418;7.286;2022-10-16T06:33:53;99605.03;;;13.01;92.76
55538;BME280;41383;51.418;7.286;2022-10-16T06:36:20;99607.75;;;13.01;93.22
55538;BME280;41383;51.418;7.286;2022-10-16T06:38:45;99609.44;;;12.96;93.34
55538;BME280;41383;51.418;7.286;2022-10-16T06:41:12;99618.13;;;13.04;93.38
55538;BME280;41383;51.418;7.286;2022-10-16T06:43:38;99608.81;;;13.05;93.33
55538;BME280;41383;51.418;7.286;2022-10-16T06:46:04;99623.03;;;13.07;93.37
55538;BME280;41383;51.418;7.286;2022-10-16T06:48:31;99617.50;;;13.12;92.80
55538;BME280;41383;51.418;7.286;2022-10-16T06:53:28;99624.59;;;13.18;92.96
55538;BME280;41383;51.418;7.286;2022-10-16T06:55:53;99622.91;;;13.23;92.81
55538;BME280;41383;51.418;7.286;2022-10-16T06:58:19;99629.78;;;13.20;93.18
55538;BME280;41383;51.418;7.286;2022-10-16T07:00:45;99641.84;;;13.19;93.13
55538;BME280;41383;51.418;7.286;2022-10-16T07:03:10;99649.47;;;13.22;92.62
55538;BME280;41383;51.418;7.286;2022-10-16T07:05:42;99657.38;;;13.29;92.96
55538;BME280;41383;51.418;7.286;2022-10-16T07:08:08;99666.09;;;13.36;92.78
55538;BME280;41383;51.418;7.286;2022-10-16T07:10:33;99667.19;;;13.35;92.74
55538;BME280;41383;51.418;7.286;2022-10-16T07:12:59;99672.06;;;13.38;92.70
55538;BME280;41383;51.418;7.286;2022-10-16T07:15:25;99675.31;;;13.46;93.08
55538;BME280;41383;51.418;7.286;2022-10-16T07:17:50;99675.34;;;13.40;92.39
55538;BME280;41383;51.418;7.286;2022-10-16T07:20:15;99684.34;;;13.46;92.23
55538;BME280;41383;51.418;7.286;2022-10-16T07:22:41;99690.06;;;13.50;92.49
55538;BME280;41383;51.418;7.286;2022-10-16T07:25:06;99691.16;;;13.54;92.11
55538;BME280;41383;51.418;7.286;2022-10-16T07:27:32;99697.47;;;13.54;91.92
55538;BME280;41383;51.418;7.286;2022-10-16T07:29:57;99702.94;;;13.54;91.91
55538;BME280;41383;51.418;7.286;2022-10-16T07:32:22;99699.91;;;13.56;91.78
55538;BME280;41383;51.418;7.286;2022-10-16T07:34:48;99705.91;;;13.58;92.21
55538;BME280;41383;51.418;7.286;2022-10-16T07:37:14;99700.69;;;13.57;91.54
55538;BME280;41383;51.418;7.286;2022-10-16T07:39:39;99701.00;;;13.55;91.65
55538;BME280;41383;51.418;7.286;2022-10-16T07:42:04;99701.53;;;13.57;91.83
55538;BME280;41383;51.418;7.286;2022-10-16T07:44:30;99699.91;;;13.56;91.64
55538;BME280;41383;51.418;7.286;2022-10-16T07:46:55;99701.53;;;13.57;91.88
55538;BME280;41383;51.418;7.286;2022-10-16T07:49:20;99720.41;;;13.59;91.66
55538;BME280;41383;51.418;7.286;2022-10-16T07:51:45;99714.06;;;13.69;91.74
55538;BME280;41383;51.418;7.286;2022-10-16T07:54:11;99715.06;;;13.78;91.30
55538;BME280;41383;51.418;7.286;2022-10-16T07:56:36;99722.06;;;13.89;91.07
55538;BME280;41383;51.418;7.286;2022-10-16T07:59:01;99726.22;;;13.87;91.24
55538;BME280;41383;51.418;7.286;2022-10-16T08:01:27;99739.88;;;13.92;91.15
55538;BME280;41383;51.418;7.286;2022-10-16T08:03:55;99738.47;;;13.95;90.32
55538;BME280;41383;51.418;7.286;2022-10-16T08:06:21;99738.03;;;14.12;90.30
55538;BME280;41383;51.418;7.286;2022-10-16T08:08:47;99746.00;;;14.14;90.64
55538;BME280;41383;51.418;7.286;2022-10-16T08:11:13;99745.41;;;14.17;89.95
55538;BME280;41383;51.418;7.286;2022-10-16T08:13:40;99750.56;;;14.23;89.69
55538;BME280;41383;51.418;7.286;2022-10-16T08:16:06;99748.13;;;14.17;89.42
55538;BME280;41383;51.418;7.286;2022-10-16T08:18:36;99746.78;;;14.14;89.98
55538;BME280;41383;51.418;7.286;2022-10-16T08:21:02;99754.63;;;14.26;90.01
55538;BME280;41383;51.418;7.286;2022-10-16T08:23:27;99765.47;;;14.36;89.23
55538;BME280;41383;51.418;7.286;2022-10-16T08:25:54;99768.22;;;14.36;88.88
55538;BME280;41383;51.418;7.286;2022-10-16T08:28:20;99778.09;;;14.38;89.11
55538;BME280;41383;51.418;7.286;2022-10-16T08:30:45;99779.72;;;14.39;88.54
55538;BME280;41383;51.418;7.286;2022-10-16T08:33:11;99778.09;;;14.38;87.99
55538;BME280;41383;51.418;7.286;2022-10-16T08:35:36;99786.50;;;14.46;87.77
55538;BME280;41383;51.418;7.286;2022-10-16T08:38:05;99788.97;;;14.48;87.30
55538;BME280;41383;51.418;7.286;2022-10-16T08:40:33;99794.72;;;14.46;86.71
55538;BME280;41383;51.418;7.286;2022-10-16T08:48:30;99802.50;;;14.64;83.45
55538;BME280;41383;51.418;7.286;2022-10-16T08:51:01;99799.13;;;14.72;84.26
55538;BME280;41383;51.418;7.286;2022-10-16T08:53:31;99805.66;;;14.76;82.67
55538;BME280;41383;51.418;7.286;2022-10-16T08:56:01;99822.84;;;14.87;83.07
55538;BME280;41383;51.418;7.286;2022-10-16T08:58:28;99816.03;;;14.85;82.68
55538;BME280;41383;51.418;7.286;2022-10-16T09:00:56;99809.88;;;14.93;82.29
55538;BME280;41383;51.418;7.286;2022-10-16T09:06:34;99815.25;;;15.03;81.94
55538;BME280;41383;51.418;7.286;2022-10-16T09:12:28;99817.63;;;15.10;79.65
55538;BME280;41383;51.418;7.286;2022-10-16T09:17:37;99834.50;;;15.23;81.30
55538;BME280;41383;51.418;7.286;2022-10-16T09:20:18;99835.84;;;15.25;80.59
55538;BME280;41383;51.418;7.286;2022-10-16T09:22:44;99839.56;;;15.35;81.08
55538;BME280;41383;51.418;7.286;2022-10-16T09:25:15;99847.47;;;15.42;80.83
55538;BME280;41383;51.418;7.286;2022-10-16T09:27:45;99851.09;;;15.37;80.35
55538;BME280;41383;51.418;7.286;2022-10-16T09:30:13;99858.22;;;15.57;80.47
55538;BME280;41383;51.418;7.286;2022-10-16T09:32:39;99850.34;;;15.50;79.42
55538;BME280;41383;51.418;7.286;2022-10-16T09:35:13;99861.34;;;15.50;79.42
55538;BME280;41383;51.418;7.286;2022-10-16T09:37:39;99858.22;;;15.57;79.92
55538;BME280;41383;51.418;7.286;2022-10-16T09:40:05;99859.72;;;15.69;78.56
55538;BME280;41383;51.418;7.286;2022-10-16T09:42:33;99854.22;;;15.69;77.46
55538;BME280;41383;51.418;7.286;2022-10-16T09:45:00;99854.81;;;15.66;78.41
55538;BME280;41383;51.418;7.286;2022-10-16T09:47:27;99863.41;;;15.59;78.47
55538;BME280;41383;51.418;7.286;2022-10-16T09:49:59;99866.03;;;15.69;77.85
55538;BME280;41383;51.418;7.286;2022-10-16T09:52:28;99864.75;;;15.81;78.14
55538;BME280;41383;51.418;7.286;2022-10-16T09:54:58;99865.22;;;15.88;76.96
55538;BME280;41383;51.418;7.286;2022-10-16T09:57:24;99868.47;;;15.90;76.66
55538;BME280;41383;51.418;7.286;2022-10-16T10:00:08;99863.56;;;15.87;77.23
55538;BME280;41383;51.418;7.286;2022-10-16T10:02:34;99870.25;;;16.00;76.17
55538;BME280;41383;51.418;7.286;2022-10-16T10:05:01;99863.91;;;16.05;76.16
55538;BME280;41383;51.418;7.286;2022-10-16T10:07:31;99858.97;;;16.02;76.46
55538;BME280;41383;51.418;7.286;2022-10-16T10:09:59;99864.91;;;16.09;76.12
55538;BME280;41383;51.418;7.286;2022-10-16T10:12:30;99861.25;;;16.14;76.45
55538;BME280;41383;51.418;7.286;2022-10-16T10:15:09;99869.66;;;16.22;76.91
55538;BME280;41383;51.418;7.286;2022-10-16T10:17:48;99865.25;;;16.21;76.89
55538;BME280;41383;51.418;7.286;2022-10-16T10:20:33;99877.44;;;16.15;75.78
55538;BME280;41383;51.418;7.286;2022-10-16T10:23:19;99875.72;;;16.19;75.47
55538;BME280;41383;51.418;7.286;2022-10-16T10:25:53;99876.28;;;16.36;74.99
55538;BME280;41383;51.418;7.286;2022-10-16T10:36:52;99876.31;;;16.02;74.68
55538;BME280;41383;51.418;7.286;2022-10-16T10:39:36;99880.00;;;15.92;74.28
55538;BME280;41383;51.418;7.286;2022-10-16T10:42:25;99873.44;;;16.07;73.25
55538;BME280;41383;51.418;7.286;2022-10-16T10:47:51;99878.25;;;16.35;72.08
55538;BME280;41383;51.418;7.286;2022-10-16T10:50:30;99872.53;;;16.45;71.94
55538;BME280;41383;51.418;7.286;2022-10-16T10:59:01;99887.19;;;16.74;73.05
55538;BME280;41383;51.418;7.286;2022-10-16T11:01:55;99889.66;;;16.76;71.60
55538;BME280;41383;51.418;7.286;2022-10-16T11:07:30;99883.84;;;16.77;70.35
55538;BME280;41383;51.418;7.286;2022-10-16T11:09:59;99882.81;;;16.87;70.19
55538;BME280;41383;51.418;7.286;2022-10-16T11:12:34;99880.97;;;16.97;69.45
55538;BME280;41383;51.418;7.286;2022-10-16T11:15:14;99880.19;;;16.96;68.51
55538;BME280;41383;51.418;7.286;2022-10-16T11:20:25;99885.69;;;16.96;68.24
55538;BME280;41383;51.418;7.286;2022-10-16T11:22:59;99880.97;;;16.97;69.25
55538;BME280;41383;51.418;7.286;2022-10-16T11:25:29;99886.09;;;17.03;68.48
55538;BME280;41383;51.418;7.286;2022-10-16T11:38:11;99892.25;;;17.14;68.52
55538;BME280;41383;51.418;7.286;2022-10-16T11:40:38;99889.19;;;17.16;67.73
55538;BME280;41383;51.418;7.286;2022-10-16T11:43:14;99891.81;;;17.21;68.61
55538;BME280;41383;51.418;7.286;2022-10-16T11:45:44;99894.38;;;17.32;69.05
55538;BME280;41383;51.418;7.286;2022-10-16T11:50:45;99893.34;;;17.27;69.31
55538;BME280;41383;51.418;7.286;2022-10-16T11:55:54;99890.59;;;17.27;67.55
55538;BME280;41383;51.418;7.286;2022-10-16T12:01:05;99894.56;;;17.35;67.15
55538;BME280;41383;51.418;7.286;2022-10-16T12:04:02;99890.59;;;17.42;66.75
55538;BME280;41383;51.418;7.286;2022-10-16T12:06:53;99902.31;;;17.33;66.74
55538;BME280;41383;51.418;7.286;2022-10-16T12:09:27;99899.47;;;17.38;66.95
55538;BME280;41383;51.418;7.286;2022-10-16T12:11:53;99901.41;;;17.38;67.43
55538;BME280;41383;51.418;7.286;2022-10-16T12:14:39;99909.28;;;17.17;67.44
55538;BME280;41383;51.418;7.286;2022-10-16T12:19:57;99920.19;;;17.22;66.79
55538;BME280;41383;51.418;7.286;2022-10-16T12:22:23;99922.03;;;17.12;66.56
55538;BME280;41383;51.418;7.286;2022-10-16T12:24:51;99919.19;;;17.18;66.96
55538;BME280;41383;51.418;7.286;2022-10-16T12:27:29;99914.56;;;17.13;66.67
55538;BME280;41383;51.418;7.286;2022-10-16T12:29:57;99918.94;;;17.00;67.76
55538;BME280;41383;51.418;7.286;2022-10-16T12:32:32;99913.13;;;17.01;68.05
55538;BME280;41383;51.418;7.286;2022-10-16T12:35:00;99918.94;;;17.00;67.65
55538;BME280;41383;51.418;7.286;2022-10-16T12:37:31;99923.81;;;17.03;67.65
55538;BME280;41383;51.418;7.286;2022-10-16T12:39:58;99923.50;;;17.04;67.54
55538;BME280;41383;51.418;7.286;2022-10-16T12:44:54;99910.28;;;17.21;66.85
55538;BME280;41383;51.418;7.286;2022-10-16T12:49:57;99924.38;;;17.33;66.41
55538;BME280;41383;51.418;7.286;2022-10-16T12:52:26;99914.88;;;17.39;66.50
55538;BME280;41383;51.418;7.286;2022-10-16T12:54:56;99925.59;;;17.27;66.65
55538;BME280;41383;51.418;7.286;2022-10-16T13:00:45;99916.31;;;17.23;66.18
55538;BME280;41383;51.418;7.286;2022-10-16T13:06:22;99923.47;;;17.24;66.85
55538;BME280;41383;51.418;7.286;2022-10-16T13:17:21;99935.59;;;17.23;67.61
55538;BME280;41383;51.418;7.286;2022-10-16T13:22:39;99934.38;;;17.43;66.64
55538;BME280;41383;51.418;7.286;2022-10-16T13:30:21;99920.47;;;17.62;66.07
55538;BME280;41383;51.418;7.286;2022-10-16T13:32:50;99922.72;;;17.60;65.72
55538;BME280;41383;51.418;7.286;2022-10-16T13:35:22;99931.53;;;17.34;66.22
55538;BME280;41383;51.418;7.286;2022-10-16T13:37:48;99926.34;;;17.33;66.22
55538;BME280;41383;51.418;7.286;2022-10-16T13:40:24;99936.91;;;17.39;66.33
55538;BME280;41383;51.418;7.286;2022-10-16T13:42:50;99941.63;;;17.53;66.03
55538;BME280;41383;51.418;7.286;2022-10-16T13:45:19;99947.91;;;17.68;65.23
55538;BME280;41383;51.418;7.286;2022-10-16T13:47:45;99945.66;;;17.70;65.67
55538;BME280;41383;51.418;7.286;2022-10-16T13:50:18;99940.28;;;17.65;66.45
55538;BME280;41383;51.418;7.286;2022-10-16T13:52:44;99951.19;;;17.70;67.34
55538;BME280;41383;51.418;7.286;2022-10-16T13:55:18;99943.41;;;17.72;66.00
55538;BME280;41383;51.418;7.286;2022-10-16T13:57:44;99945.88;;;17.73;66.00
55538;BME280;41383;51.418;7.286;2022-10-16T14:00:21;99932.72;;;17.70;65.97
55538;BME280;41383;51.418;7.286;2022-10-16T14:02:53;99932.84;;;17.51;67.30
55538;BME280;41383;51.418;7.286;2022-10-16T14:05:20;99933.88;;;17.55;68.06
55538;BME280;41383;51.418;7.286;2022-10-16T14:07:49;99928.06;;;17.43;68.05
55538;BME280;41383;51.418;7.286;2022-10-16T14:10:23;99927.13;;;17.47;67.93
55538;BME280;41383;51.418;7.286;2022-10-16T14:13:01;99938.66;;;17.35;67.65
55538;BME280;41383;51.418;7.286;2022-10-16T14:15:27;99938.34;;;17.23;67.35
55538;BME280;41383;51.418;7.286;2022-10-16T14:17:54;99946.94;;;17.35;67.94
55538;BME280;41383;51.418;7.286;2022-10-16T14:20:24;99943.66;;;17.33;66.59
55538;BME280;41383;51.418;7.286;2022-10-16T14:23:02;99942.22;;;17.50;67.70
55538;BME280;41383;51.418;7.286;2022-10-16T14:25:30;99943.06;;;17.36;67.78
55538;BME280;41383;51.418;7.286;2022-10-16T14:28:19;99944.47;;;17.48;67.54
55538;BME280;41383;51.418;7.286;2022-10-16T14:30:57;99956.84;;;17.36;68.94
55538;BME280;41383;51.418;7.286;2022-10-16T14:38:28;99960.50;;;17.18;68.90
55538;BME280;41383;51.418;7.286;2022-10-16T14:40:57;99967.53;;;17.24;69.93
55538;BME280;41383;51.418;7.286;2022-10-16T14:43:39;99958.75;;;17.22;70.16
55538;BME280;41383;51.418;7.286;2022-10-16T14:46:12;99951.84;;;17.24;70.26
55538;BME280;41383;51.418;7.286;2022-10-16T14:48:43;99921.03;;;17.22;70.70
55538;BME280;41383;51.418;7.286;2022-10-16T14:51:16;99914.06;;;17.25;70.23